Thunder radar more information blitzortung!


avis per Pluja more information rain snow radar


Visita la nostra xarxa de llocs de meteo:

Template documentation
and downloads

And another site



Rain From: 16-11-2018 00:00 Until: 09:59 warning for: Rain Level: Yellow info button

Pagina Historial Weather Underground text

Diari Resum Novembre 16, 2017 Unitats:  Imperial    Mètric   Tant
« Previous Dia
SegĂźent Dia »
Diari Setmana Mensual Anual Personalitzada
  Maxima: Minima: Media:
Temperatura: TemperatureC °F 2.5 °F 10.2 °F
Punt de rosada: DewpointC °F -4.5 °F 1.1 °F
Humitat: Humidity % 48 % 53 %
Wind Speed: WindSpeedKMH mph 0.0 mph 3.3 mph
RĂ fegues de vent: WindSpeedGustKMH mph - -
Vent:- - South
Pression baro: PressurehPa in 1018.8 in -
Precipitacions: 0.0 in    
Historical Graphs
 
 
Dades de taula per Novembre 16, 2017
Temps Temperatura Punt de rosada Pression baro Vent Wind Speed RĂ fegues de vent Humitat Rainfall Rate (Hourly)
TemperatureC °F DewpointC °F PressurehPa in Calm     Humidity % HourlyPrecipMM in
00:04 5.2 °F -3.9 °F 1018.8 in Calm     52 % 0.0 in
00:05 2.9 °F -4.1 °F 1018.8 in Calm   3.2 mph 60 % 0.0 in
00:09 5.1 °F -3.9 °F 1018.8 in Calm     52 % 0.0 in
00:15 2.9 °F -4.3 °F 1018.8 in West 1.6 mph 3.2 mph 59 % 0.0 in
00:25 2.9 °F -4.1 °F 1018.8 in Calm   3.2 mph 60 % 0.0 in
00:35 3.0 °F -4.0 °F 1018.8 in SW 3.2 mph 3.2 mph 60 % 0.0 in
00:45 2.6 °F -4.4 °F 1018.8 in SW 1.6 mph 3.2 mph 60 % 0.0 in
00:55 2.6 °F -4.4 °F 1018.8 in SW 1.6 mph 1.6 mph 60 % 0.0 in
01:05 2.6 °F -4.2 °F 1018.8 in Calm   1.6 mph 61 % 0.0 in
01:15 2.8 °F -4.2 °F 1018.8 in Calm   3.2 mph 60 % 0.0 in
01:25 2.8 °F -4.0 °F 1019.9 in Calm   1.6 mph 61 % 0.0 in
01:35 2.5 °F -4.5 °F 1019.9 in WSW 3.2 mph 4.8 mph 60 % 0.0 in
01:45 2.5 °F -4.3 °F 1019.9 in WSW 1.6 mph 3.2 mph 61 % 0.0 in
01:55 2.6 °F -4.4 °F 1019.9 in SW 3.2 mph 3.2 mph 60 % 0.0 in
02:05 2.7 °F -4.1 °F 1019.9 in Calm   3.2 mph 61 % 0.0 in
02:15 3.1 °F -3.7 °F 1019.9 in Calm     61 % 0.0 in
02:25 3.9 °F -2.7 °F 1019.9 in Calm     62 % 0.0 in
02:35 4.0 °F -3.1 °F 1019.9 in Calm     60 % 0.0 in
02:45 4.3 °F -3.0 °F 1019.9 in SW 1.6 mph 1.6 mph 59 % 0.0 in
02:55 5.3 °F -2.1 °F 1019.9 in Calm   1.6 mph 59 % 0.0 in
03:05 6.0 °F -1.9 °F 1019.9 in Calm   1.6 mph 57 % 0.0 in
03:15 6.4 °F -1.5 °F 1018.8 in Calm   1.6 mph 57 % 0.0 in
03:25 7.2 °F -1.0 °F 1020.9 in Calm     56 % 0.0 in
03:35 7.2 °F -1.2 °F 1020.9 in SW 1.6 mph 1.6 mph 55 % 0.0 in
03:55 6.5 °F -1.9 °F 1020.9 in SW 1.6 mph 3.2 mph 55 % 0.0 in
04:05 7.6 °F -1.1 °F 1020.9 in SW 1.6 mph 3.2 mph 54 % 0.0 in
04:15 8.3 °F -0.5 °F 1020.9 in Calm   3.2 mph 54 % 0.0 in
04:25 8.8 °F 0.0 °F 1020.9 in Calm   4.8 mph 54 % 0.0 in
04:35 9.2 °F 0.4 °F 1020.9 in SE 1.6 mph 3.2 mph 54 % 0.0 in
10:36 9.6 °F 0.7 °F 1021.9 in SSE 1.9 mph   54 % 0.0 in
10:37 9.7 °F 0.8 °F 1021.9 in SE 3.7 mph 3.7 mph 54 % 0.0 in
10:42 9.6 °F 0.5 °F 1021.9 in East 3.7 mph 3.7 mph 53 % 0.0 in
10:47 10.1 °F 0.9 °F 1021.9 in WNW 1.9 mph   53 % 0.0 in
10:52 10.0 °F 0.6 °F 1021.9 in ESE 3.7 mph 3.7 mph 52 % 0.0 in
10:57 10.1 °F 0.7 °F 1021.9 in East 5.6 mph 5.6 mph 52 % 0.0 in
11:02 10.4 °F 0.9 °F 1021.9 in ENE 3.7 mph 3.7 mph 52 % 0.0 in
11:07 10.6 °F 1.2 °F 1021.9 in WNW 3.7 mph 3.7 mph 52 % 0.0 in
11:12 10.6 °F 1.2 °F 1021.9 in NW 3.7 mph 3.7 mph 52 % 0.0 in
11:17 10.9 °F 1.4 °F 1021.9 in NNE 3.7 mph 3.7 mph 52 % 0.0 in
11:22 11.0 °F 1.5 °F 1021.9 in NNE 3.7 mph 3.7 mph 52 % 0.0 in
11:27 11.2 °F 1.7 °F 1021.9 in SE 3.7 mph 3.7 mph 52 % 0.0 in
11:32 11.7 °F 2.2 °F 1021.9 in East 3.7 mph 3.7 mph 52 % 0.0 in
11:42 12.3 °F 2.4 °F 1021.9 in East 3.7 mph 3.7 mph 51 % 0.0 in
11:47 12.0 °F 2.2 °F 1021.9 in ENE 5.6 mph 5.6 mph 51 % 0.0 in
11:57 12.0 °F 2.2 °F 1021.9 in East 3.7 mph 3.7 mph 51 % 0.0 in
12:02 12.3 °F 2.4 °F 1021.9 in ESE 5.6 mph 5.6 mph 51 % 0.0 in
12:07 12.5 °F 2.6 °F 1021.9 in East 5.0 mph 5.0 mph 51 % 0.0 in
12:12 12.6 °F 2.4 °F 1021.9 in ENE 7.4 mph 7.4 mph 50 % 0.0 in
12:17 13.0 °F 3.1 °F 1021.9 in WSW 2.3 mph   51 % 0.0 in
12:22 13.0 °F 3.1 °F 1021.9 in ESE 3.7 mph 3.7 mph 51 % 0.0 in
12:27 13.3 °F 3.1 °F 1021.9 in ENE 5.6 mph 5.6 mph 50 % 0.0 in
12:32 13.3 °F 3.1 °F 1021.9 in ESE 5.6 mph 5.6 mph 50 % 0.0 in
12:37 13.2 °F 3.0 °F 1020.9 in ESE 4.7 mph 4.7 mph 50 % 0.0 in
12:42 13.6 °F 3.4 °F 1020.9 in NNE 2.3 mph 2.3 mph 50 % 0.0 in
12:47 13.8 °F 3.6 °F 1020.9 in SSE 3.9 mph 3.9 mph 50 % 0.0 in
12:52 14.0 °F 3.7 °F 1020.9 in ESE 5.6 mph 5.6 mph 50 % 0.0 in
12:57 13.8 °F 3.6 °F 1020.9 in ENE 3.9 mph 3.9 mph 50 % 0.0 in
13:02 13.9 °F 3.6 °F 1020.9 in East 3.7 mph 3.7 mph 50 % 0.0 in
13:07 14.3 °F 4.0 °F 1019.9 in East 1.9 mph 1.9 mph 50 % 0.0 in
13:12 14.0 °F 3.7 °F 1019.9 in ESE 5.6 mph 5.6 mph 50 % 0.0 in
13:17 14.2 °F 3.9 °F 1019.9 in ESE 5.6 mph 5.6 mph 50 % 0.0 in
13:22 14.3 °F 4.0 °F 1019.9 in ESE 5.6 mph 5.6 mph 50 % 0.0 in
13:27 14.4 °F 4.1 °F 1019.9 in SW 5.6 mph 5.6 mph 50 % 0.0 in
13:32 15.1 °F 5.1 °F 1019.9 in SW 3.7 mph 3.7 mph 51 % 0.0 in
13:37 15.1 °F 4.7 °F 1019.9 in ESE 3.7 mph 3.7 mph 50 % 0.0 in
13:42 15.1 °F 4.7 °F 1019.9 in East 2.6 mph   50 % 0.0 in
13:47 15.1 °F 4.7 °F 1019.9 in ESE 5.6 mph 5.6 mph 50 % 0.0 in
13:52 15.0 °F 4.7 °F 1019.9 in ESE 7.4 mph 7.4 mph 50 % 0.0 in
13:57 15.1 °F 4.7 °F 1019.9 in WSW 5.8 mph 5.8 mph 50 % 0.0 in
14:02 15.1 °F 4.4 °F 1019.9 in East 7.4 mph 7.4 mph 49 % 0.0 in
14:07 15.2 °F 4.6 °F 1019.9 in WSW 4.7 mph 4.7 mph 49 % 0.0 in
14:12 15.3 °F 4.6 °F 1019.9 in SW 3.5 mph 3.5 mph 49 % 0.0 in
14:17 15.2 °F 4.6 °F 1019.9 in ESE 7.4 mph 7.4 mph 49 % 0.0 in
14:22 15.3 °F 4.6 °F 1019.9 in ESE 5.6 mph 5.6 mph 49 % 0.0 in
14:27 15.1 °F 4.2 °F 1019.9 in ESE 7.4 mph 7.4 mph 48 % 0.0 in
14:32 15.1 °F 4.2 °F 1019.9 in East 7.4 mph 7.4 mph 48 % 0.0 in
14:37 15.1 °F 4.2 °F 1019.9 in ESE 7.4 mph 7.4 mph 48 % 0.0 in
14:42 15.1 °F 4.2 °F 1019.9 in ESE 5.6 mph 5.6 mph 48 % 0.0 in
14:47 15.1 °F 4.2 °F 1019.9 in SE 5.6 mph 5.6 mph 48 % 0.0 in
14:52 15.2 °F 4.3 °F 1019.9 in ESE 5.6 mph 5.6 mph 48 % 0.0 in
14:57 15.2 °F 4.6 °F 1019.9 in SE 5.6 mph 5.6 mph 49 % 0.0 in
15:02 15.2 °F 4.6 °F 1019.9 in East 7.4 mph 7.4 mph 49 % 0.0 in
15:07 15.2 °F 4.6 °F 1019.9 in ESE 7.4 mph 7.4 mph 49 % 0.0 in
15:12 15.2 °F 4.6 °F 1019.9 in East 7.4 mph 7.4 mph 49 % 0.0 in
15:17 15.2 °F 4.8 °F 1019.9 in ESE 6.4 mph 6.4 mph 50 % 0.0 in
15:22 15.2 °F 4.8 °F 1019.9 in ESE 7.4 mph 7.4 mph 50 % 0.0 in
15:27 15.2 °F 5.1 °F 1019.9 in ESE 10.0 mph 10.0 mph 51 % 0.0 in
15:37 15.2 °F 5.1 °F 1019.9 in ESE 9.3 mph 9.3 mph 51 % 0.0 in
15:42 15.1 °F 5.3 °F 1019.9 in ESE 7.4 mph 7.4 mph 52 % 0.0 in
15:47 15.1 °F 5.3 °F 1019.9 in ESE 5.6 mph 5.6 mph 52 % 0.0 in
15:52 15.2 °F 5.7 °F 1019.9 in ESE 9.3 mph 9.3 mph 53 % 0.0 in
15:57 15.1 °F 5.8 °F 1019.9 in ESE 7.4 mph 7.4 mph 54 % 0.0 in
16:02 14.9 °F 5.9 °F 1019.9 in ENE 11.1 mph 11.1 mph 55 % 0.0 in
16:07 14.8 °F 6.3 °F 1019.9 in East 8.7 mph 8.7 mph 57 % 0.0 in
16:12 14.7 °F 6.8 °F 1019.9 in ESE 11.1 mph 11.1 mph 59 % 0.0 in
16:17 14.7 °F 7.0 °F 1019.9 in SSE 5.6 mph 5.6 mph 60 % 0.0 in
16:22 14.8 °F 7.1 °F 1019.9 in ESE 7.4 mph 7.4 mph 60 % 0.0 in
16:23 14.8 °F 7.1 °F 1019.9 in ESE 7.4 mph 7.4 mph 60 % 0.0 in
16:28 14.7 °F 7.3 °F 1019.9 in ESE 7.4 mph 7.4 mph 61 % 0.0 in
16:33 14.6 °F 7.2 °F 1019.9 in ESE 7.4 mph 7.4 mph 61 % 0.0 in
16:38 14.7 °F 7.3 °F 1019.9 in SSW 5.6 mph 5.6 mph 61 % 0.0 in
16:43 15.0 °F 7.3 °F 1019.9 in SW 7.4 mph 7.4 mph 60 % 0.0 in
16:48 15.2 °F 6.7 °F 1019.9 in WSW 5.6 mph 5.6 mph 57 % 0.0 in
16:53 15.1 °F 6.4 °F 1019.9 in SSW 7.4 mph 7.4 mph 56 % 0.0 in
16:58 15.0 °F 6.0 °F 1019.9 in SSW 4.7 mph 4.7 mph 55 % 0.0 in
17:03 14.9 °F 5.9 °F 1019.9 in SW 3.7 mph 3.7 mph 55 % 0.0 in
17:13 14.4 °F 5.2 °F 1019.9 in SW 7.4 mph 7.4 mph 54 % 0.0 in
17:18 14.3 °F 5.1 °F 1019.9 in SW 3.9 mph 3.9 mph 54 % 0.0 in
17:23 14.0 °F 4.8 °F 1019.9 in SW 5.6 mph 5.6 mph 54 % 0.0 in
17:28 13.8 °F 4.7 °F 1019.9 in SW 5.8 mph 5.8 mph 54 % 0.0 in
17:33 13.6 °F 4.4 °F 1019.9 in SW 3.7 mph 3.7 mph 54 % 0.0 in
17:38 13.4 °F 4.0 °F 1019.9 in SW 3.7 mph 3.7 mph 53 % 0.0 in
17:43 13.2 °F 3.8 °F 1019.9 in WSW 3.7 mph 3.7 mph 53 % 0.0 in
17:48 13.0 °F 3.6 °F 1019.9 in WSW 3.7 mph 3.7 mph 53 % 0.0 in
17:58 12.6 °F 3.3 °F 1019.9 in WSW 3.5 mph 3.5 mph 53 % 0.0 in
18:03 12.5 °F 3.2 °F 1019.9 in SW 5.6 mph 5.6 mph 53 % 0.0 in
18:08 12.3 °F 3.0 °F 1019.9 in SW 3.7 mph 3.7 mph 53 % 0.0 in
18:13 12.2 °F 2.9 °F 1019.9 in WSW 3.7 mph 3.7 mph 53 % 0.0 in
18:18 12.1 °F 2.8 °F 1019.9 in WSW 3.7 mph 3.7 mph 53 % 0.0 in
18:23 12.0 °F 2.7 °F 1019.9 in SW 3.7 mph 3.7 mph 53 % 0.0 in
18:28 11.9 °F 2.6 °F 1019.9 in WSW 3.7 mph 3.7 mph 53 % 0.0 in
18:33 11.8 °F 2.5 °F 1019.9 in WSW 3.7 mph 3.7 mph 53 % 0.0 in
18:38 11.8 °F 2.5 °F 1019.9 in WSW 2.3 mph 2.3 mph 53 % 0.0 in
18:43 11.8 °F 2.3 °F 1019.9 in WSW 3.7 mph 3.7 mph 52 % 0.0 in
18:48 11.7 °F 2.2 °F 1019.9 in WSW 1.9 mph 1.9 mph 52 % 0.0 in
18:53 11.6 °F 2.1 °F 1019.9 in WSW 1.9 mph 1.9 mph 52 % 0.0 in
19:03 11.3 °F 1.8 °F 1020.9 in WSW 2.3 mph 2.3 mph 52 % 0.0 in
19:08 11.2 °F 1.7 °F 1020.9 in WSW 2.3 mph 2.3 mph 52 % 0.0 in
19:13 11.1 °F 1.6 °F 1020.9 in SW 3.7 mph 3.7 mph 52 % 0.0 in
19:18 11.1 °F 1.6 °F 1020.9 in SW 2.3 mph 2.3 mph 52 % 0.0 in
19:23 11.0 °F 1.5 °F 1020.9 in Calm     52 % 0.0 in
19:28 10.9 °F 1.4 °F 1020.9 in SW 1.9 mph   52 % 0.0 in
19:33 10.8 °F 1.3 °F 1020.9 in Calm     52 % 0.0 in
19:38 10.8 °F 1.3 °F 1020.9 in WSW 3.7 mph 3.7 mph 52 % 0.0 in
19:43 10.7 °F 1.5 °F 1020.9 in WSW 2.3 mph   53 % 0.0 in
19:48 10.7 °F 1.2 °F 1020.9 in WSW 4.2 mph 4.2 mph 52 % 0.0 in
19:53 10.7 °F 1.2 °F 1020.9 in West 4.2 mph 4.2 mph 52 % 0.0 in
19:58 10.5 °F 1.1 °F 1020.9 in SW 3.9 mph 3.9 mph 52 % 0.0 in
20:03 10.4 °F 0.9 °F 1020.9 in WSW 4.7 mph 4.7 mph 52 % 0.0 in
20:08 10.4 °F 0.9 °F 1020.9 in WSW 5.6 mph 5.6 mph 52 % 0.0 in
20:13 10.3 °F 0.9 °F 1020.9 in WSW 5.6 mph 5.6 mph 52 % 0.0 in
20:18 10.2 °F 0.5 °F 1021.9 in WSW 4.2 mph 4.2 mph 51 % 0.0 in
20:23 10.2 °F 0.5 °F 1021.9 in WSW 1.9 mph 1.9 mph 51 % 0.0 in
20:28 10.0 °F 0.3 °F 1021.9 in SW 1.9 mph   51 % 0.0 in
20:33 9.9 °F 0.2 °F 1021.9 in WSW 1.9 mph 1.9 mph 51 % 0.0 in
20:38 9.8 °F 0.1 °F 1021.9 in WSW 1.9 mph   51 % 0.0 in
20:43 9.7 °F 0.1 °F 1021.9 in Calm     51 % 0.0 in
20:48 9.7 °F -0.2 °F 1021.9 in Calm     50 % 0.0 in
20:53 9.6 °F -0.3 °F 1021.9 in Calm     50 % 0.0 in
20:58 9.5 °F -0.4 °F 1021.9 in Calm     50 % 0.0 in
21:03 9.4 °F -0.2 °F 1020.9 in Calm     51 % 0.0 in
21:08 9.4 °F -0.5 °F 1020.9 in West 3.7 mph 3.7 mph 50 % 0.0 in
21:13 9.4 °F -0.5 °F 1020.9 in WNW 1.9 mph 1.9 mph 50 % 0.0 in
21:15 4.9 °F -2.4 °F 1019.9 in NNW 1.6 mph 3.2 mph 59 % 0.0 in
21:18 9.4 °F -0.5 °F 1021.9 in WNW 1.9 mph   50 % 0.0 in
21:23 9.5 °F -0.4 °F 1021.9 in WNW 1.9 mph   50 % 0.0 in
21:25 4.8 °F -2.6 °F 1019.9 in Calm   3.2 mph 59 % 0.0 in
21:28 9.3 °F -0.6 °F 1021.9 in Calm     50 % 0.0 in
21:33 9.2 °F -0.7 °F 1021.9 in SSE 4.2 mph 4.2 mph 50 % 0.0 in
21:35 4.8 °F -2.6 °F 1019.9 in North 1.6 mph 3.2 mph 59 % 0.0 in
21:38 8.8 °F -1.1 °F 1021.9 in SW 1.9 mph   50 % 0.0 in
21:43 8.6 °F -1.3 °F 1021.9 in SW 1.9 mph   50 % 0.0 in
21:45 4.7 °F -2.7 °F 1019.9 in Calm   1.6 mph 59 % 0.0 in
21:48 8.4 °F -1.2 °F 1021.9 in Calm     51 % 0.0 in
21:53 8.2 °F -1.3 °F 1021.9 in Calm     51 % 0.0 in
21:55 4.5 °F -2.8 °F 1019.9 in WNW 1.6 mph 1.6 mph 59 % 0.0 in
21:58 8.1 °F -1.4 °F 1021.9 in SW 2.6 mph 2.6 mph 51 % 0.0 in
22:03 8.0 °F -1.6 °F 1021.9 in Calm     51 % 0.0 in
22:05 4.5 °F -2.8 °F 1019.9 in Calm     59 % 0.0 in
22:08 7.9 °F -1.6 °F 1021.9 in Calm     51 % 0.0 in
22:13 7.7 °F -1.8 °F 1021.9 in Calm     51 % 0.0 in
22:15 4.5 °F -2.8 °F 1019.9 in Calm   1.6 mph 59 % 0.0 in
22:18 7.7 °F -1.8 °F 1021.9 in SW 1.9 mph   51 % 0.0 in
22:23 7.6 °F -1.7 °F 1021.9 in Calm     52 % 0.0 in
22:25 4.5 °F -2.8 °F 1019.9 in Calm   1.6 mph 59 % 0.0 in
22:28 7.4 °F -1.8 °F 1021.9 in Calm     52 % 0.0 in
22:29 7.4 °F -1.8 °F 1021.9 in Calm     52 % 0.0 in
22:34 7.3 °F -1.9 °F 1020.9 in Calm     52 % 0.0 in
22:35 4.3 °F -3.0 °F 1019.9 in Calm   1.6 mph 59 % 0.0 in
22:39 7.3 °F -1.9 °F 1020.9 in NE 3.2 mph   52 % 0.0 in
22:44 7.1 °F -2.1 °F 1020.9 in NE 3.7 mph 3.7 mph 52 % 0.0 in
22:45 4.3 °F -3.0 °F 1019.9 in Calm     59 % 0.0 in
22:49 7.0 °F -1.9 °F 1020.9 in ENE 1.9 mph 1.9 mph 53 % 0.0 in
22:54 7.0 °F -1.9 °F 1020.9 in Calm     53 % 0.0 in
22:55 4.3 °F -3.0 °F 1019.9 in WNW 1.6 mph 1.6 mph 59 % 0.0 in
22:59 6.9 °F -2.1 °F 1020.9 in Calm     53 % 0.0 in
23:04 6.9 °F -2.1 °F 1020.9 in WSW 2.6 mph 2.6 mph 53 % 0.0 in
23:05 4.4 °F -2.9 °F 1019.9 in Calm   1.6 mph 59 % 0.0 in
23:14 6.7 °F -1.9 °F 1020.9 in WSW 1.9 mph 1.9 mph 54 % 0.0 in
23:15 4.3 °F -3.0 °F 1019.9 in North 1.6 mph 3.2 mph 59 % 0.0 in
23:19 6.7 °F -1.9 °F 1021.9 in WSW 1.9 mph   54 % 0.0 in
23:24 6.7 °F -1.9 °F 1021.9 in WNW 1.9 mph 1.9 mph 54 % 0.0 in
23:25 4.2 °F -3.1 °F 1019.9 in Calm   1.6 mph 59 % 0.0 in
23:29 6.7 °F -1.9 °F 1021.9 in ENE 2.6 mph 2.6 mph 54 % 0.0 in
23:30 6.7 °F -1.9 °F 1021.9 in ENE 2.6 mph 2.6 mph 54 % 0.0 in
23:35 6.6 °F -2.1 °F 1020.9 in NE 1.9 mph 1.9 mph 54 % 0.0 in
23:40 6.7 °F -1.9 °F 1020.9 in NE 2.3 mph 2.3 mph 54 % 0.0 in
23:45 6.9 °F -1.8 °F 1020.9 in NW 3.2 mph 3.2 mph 54 % 0.0 in
23:50 7.0 °F -1.7 °F 1020.9 in Calm     54 % 0.0 in
23:55 7.0 °F -1.4 °F 1020.9 in NE 3.7 mph 3.7 mph 55 % 0.0 in
Meteo Sesrovires
Elogis d' Weather Underground - 1.5 mb

Guio original per  Jim McMurry - jmcmurry@mwt.net Adaptat per a la plantilla per  Wim van der Kuil - Leuven-Template.eu

Trobareu la nostra informacio del temps tambe a:

Weather Underground

AWEKAS